createdAt,value
2018-05-24T00:01:07.533Z,20.90
2018-05-24T00:03:35.044Z,20.90
2018-05-24T00:06:03.331Z,20.80
2018-05-24T00:08:30.843Z,20.80
2018-05-24T00:10:58.366Z,20.80
2018-05-24T00:13:25.893Z,20.70
2018-05-24T00:15:54.169Z,20.60
2018-05-24T00:18:22.453Z,20.60
2018-05-24T00:20:50.733Z,20.50
2018-05-24T00:23:19.019Z,20.50
2018-05-24T00:25:46.533Z,20.50
2018-05-24T00:28:14.052Z,20.50
2018-05-24T00:30:41.558Z,20.40
2018-05-24T00:33:09.078Z,20.40
2018-05-24T00:35:36.594Z,20.40
2018-05-24T00:38:04.874Z,20.30
2018-05-24T00:40:33.157Z,20.30
2018-05-24T00:43:01.438Z,20.20
2018-05-24T00:45:28.961Z,20.20
2018-05-24T00:47:57.246Z,20.20
2018-05-24T00:50:25.533Z,20.10
2018-05-24T00:52:53.813Z,20.10
2018-05-24T00:55:33.833Z,20.10
2018-05-24T00:58:01.377Z,20.10
2018-05-24T01:00:28.897Z,20.10
2018-05-24T01:02:56.406Z,20.00
2018-05-24T01:05:24.527Z,20.00
2018-05-24T01:07:52.117Z,20.00
2018-05-24T01:10:19.651Z,19.90
2018-05-24T01:12:47.164Z,19.90
2018-05-24T01:15:14.690Z,19.80
2018-05-24T01:17:42.217Z,19.80
2018-05-24T01:20:10.493Z,19.80
2018-05-24T01:22:38.781Z,19.70
2018-05-24T01:25:06.301Z,19.70
2018-05-24T01:27:33.822Z,19.70
2018-05-24T01:30:01.343Z,19.70
2018-05-24T01:32:28.885Z,19.60
2018-05-24T01:34:56.413Z,19.60
2018-05-24T01:37:35.977Z,19.60
2018-05-24T01:40:04.381Z,19.50
2018-05-24T01:42:32.657Z,19.50
2018-05-24T01:45:00.935Z,19.50
2018-05-24T01:47:29.223Z,19.40
2018-05-24T01:49:56.734Z,19.40
2018-05-24T01:52:24.253Z,19.40
2018-05-24T01:54:51.766Z,19.40
2018-05-24T01:57:20.802Z,19.30
2018-05-24T01:59:48.319Z,19.30
2018-05-24T02:02:16.595Z,19.20
2018-05-24T02:04:44.887Z,19.20
2018-05-24T02:07:13.169Z,19.10
2018-05-24T02:09:41.443Z,19.10
2018-05-24T02:12:09.714Z,19.10
2018-05-24T02:14:38.001Z,19.10
2018-05-24T02:17:05.529Z,19.00
2018-05-24T02:19:35.322Z,19.10
2018-05-24T02:22:02.829Z,19.00
2018-05-24T02:24:31.113Z,19.10
2018-05-24T02:26:59.397Z,19.00
2018-05-24T02:29:26.919Z,19.00
2018-05-24T02:31:54.446Z,19.10
2018-05-24T02:34:21.985Z,19.10
2018-05-24T02:36:49.507Z,19.10
2018-05-24T02:39:17.794Z,19.00
2018-05-24T02:41:46.091Z,19.00
2018-05-24T02:44:13.608Z,19.00
2018-05-24T02:46:41.890Z,18.90
2018-05-24T03:02:07.863Z,19.00
2018-05-24T03:04:35.385Z,19.00
2018-05-24T03:07:03.672Z,18.90
2018-05-24T03:09:31.190Z,18.90
2018-05-24T03:11:58.702Z,18.90
2018-05-24T03:14:26.253Z,18.90
2018-05-24T03:16:54.510Z,18.80
2018-05-24T03:19:22.781Z,18.80
2018-05-24T03:21:51.065Z,18.80
2018-05-24T03:24:19.345Z,18.80
2018-05-24T03:26:46.861Z,18.70
2018-05-24T03:29:14.397Z,18.80
2018-05-24T03:31:41.914Z,18.80
2018-05-24T03:34:10.193Z,18.80
2018-05-24T03:36:38.477Z,18.80
2018-05-24T03:39:06.025Z,18.70
2018-05-24T03:41:34.308Z,18.80
2018-05-24T03:44:02.595Z,18.80
2018-05-24T03:46:32.017Z,18.80
2018-05-24T03:48:59.545Z,18.80
2018-05-24T03:51:27.817Z,18.90
2018-05-24T03:53:56.103Z,18.90
2018-05-24T03:56:23.630Z,18.90
2018-05-24T03:58:51.146Z,19.00
2018-05-24T04:01:30.468Z,19.00
2018-05-24T04:04:09.846Z,19.00
2018-05-24T04:06:37.368Z,19.10
2018-05-24T04:09:04.879Z,19.10
2018-05-24T04:11:32.596Z,19.10
2018-05-24T04:14:00.109Z,19.10
2018-05-24T04:16:28.437Z,19.20
2018-05-24T04:18:55.944Z,19.20
2018-05-24T04:21:24.225Z,19.30
2018-05-24T04:23:52.514Z,19.20
2018-05-24T04:26:20.827Z,19.20
2018-05-24T04:28:48.335Z,19.20
2018-05-24T04:31:16.614Z,19.30
2018-05-24T04:33:44.914Z,19.30
2018-05-24T04:36:12.461Z,19.30
2018-05-24T04:38:40.741Z,19.30
2018-05-24T04:41:09.029Z,19.30
2018-05-24T04:43:36.677Z,19.30
2018-05-24T04:46:04.983Z,19.30
2018-05-24T04:48:32.493Z,19.30
2018-05-24T04:51:00.077Z,19.40
2018-05-24T04:53:28.358Z,19.40
2018-05-24T04:55:55.885Z,19.40
2018-05-24T04:58:23.394Z,19.50
2018-05-24T05:00:50.913Z,19.50
2018-05-24T05:03:19.200Z,19.50
2018-05-24T05:05:47.481Z,19.50
2018-05-24T05:08:15.761Z,19.60
2018-05-24T05:10:44.046Z,19.60
2018-05-24T05:13:11.549Z,19.60
2018-05-24T05:15:39.072Z,19.70
2018-05-24T05:18:06.585Z,19.70
2018-05-24T05:20:34.873Z,19.80
2018-05-24T05:23:03.220Z,19.90
2018-05-24T05:25:31.449Z,19.90
2018-05-24T05:27:58.962Z,19.90
2018-05-24T05:30:26.501Z,20.00
2018-05-24T05:32:54.014Z,20.00
2018-05-24T05:35:21.545Z,20.10
2018-05-24T05:37:49.060Z,20.10
2018-05-24T05:40:16.586Z,20.20
2018-05-24T05:42:44.870Z,20.20
2018-05-24T05:45:13.149Z,20.20
2018-05-24T05:47:41.443Z,20.30
2018-05-24T05:50:08.970Z,20.20
2018-05-24T05:52:37.261Z,20.30
2018-05-24T05:55:05.541Z,20.40
2018-05-24T05:57:33.157Z,20.30
2018-05-24T06:00:00.678Z,20.40
2018-05-24T06:02:28.186Z,20.50
2018-05-24T06:04:55.730Z,20.50
2018-05-24T06:07:23.251Z,20.60
2018-05-24T06:09:50.774Z,20.70
2018-05-24T06:12:19.070Z,20.80
2018-05-24T06:14:47.341Z,20.90
2018-05-24T06:17:15.618Z,21.00
2018-05-24T06:19:43.901Z,21.10
2018-05-24T06:22:12.196Z,21.20
2018-05-24T06:24:39.706Z,21.20
2018-05-24T06:27:07.264Z,21.30
2018-05-24T06:29:34.773Z,21.30
2018-05-24T06:32:02.285Z,21.40
2018-05-24T06:34:29.818Z,21.50
2018-05-24T06:36:57.350Z,21.60
2018-05-24T06:39:24.877Z,21.60
2018-05-24T06:41:53.204Z,21.80
2018-05-24T06:44:20.694Z,21.80
2018-05-24T06:46:48.218Z,21.90
2018-05-24T06:49:15.743Z,22.00
2018-05-24T06:51:44.014Z,22.10
2018-05-24T06:54:12.295Z,22.20
2018-05-24T06:56:40.570Z,22.30
2018-05-24T06:59:08.846Z,22.30
2018-05-24T07:01:37.169Z,22.40
2018-05-24T07:04:04.714Z,22.40
2018-05-24T07:06:32.254Z,22.50
2018-05-24T07:08:59.773Z,22.50
2018-05-24T07:11:27.301Z,22.60
2018-05-24T07:13:54.813Z,22.70
2018-05-24T07:16:23.085Z,22.90
2018-05-24T07:18:51.392Z,23.00
2018-05-24T07:21:18.913Z,23.00
2018-05-24T07:23:47.190Z,23.10
2018-05-24T07:26:15.479Z,23.20
2018-05-24T07:28:43.770Z,23.20
2018-05-24T07:31:11.282Z,23.20
2018-05-24T07:33:38.821Z,23.30
2018-05-24T07:36:06.329Z,23.50
2018-05-24T07:38:34.609Z,23.60
2018-05-24T07:41:02.910Z,23.60
2018-05-24T07:43:30.422Z,23.60
2018-05-24T07:45:57.933Z,23.70
2018-05-24T07:48:25.453Z,23.80
2018-05-24T07:50:53.732Z,23.90
2018-05-24T07:53:22.013Z,23.90
2018-05-24T07:55:50.293Z,23.90
2018-05-24T07:58:18.580Z,23.90
2018-05-24T08:00:46.090Z,23.90
2018-05-24T08:03:13.625Z,24.00
2018-05-24T08:05:41.150Z,24.00
2018-05-24T08:08:09.446Z,24.00
2018-05-24T08:10:36.969Z,24.00
2018-05-24T08:13:05.245Z,24.10
2018-05-24T08:15:33.525Z,24.20
2018-05-24T08:18:01.814Z,24.20
2018-05-24T08:20:29.334Z,24.20
2018-05-24T08:22:56.851Z,24.30
2018-05-24T08:25:24.372Z,24.40
2018-05-24T08:27:51.889Z,24.30
2018-05-24T08:30:19.405Z,24.30
2018-05-24T08:32:47.695Z,24.40
2018-05-24T08:35:15.256Z,24.40
2018-05-24T08:37:43.514Z,24.50
2018-05-24T08:40:11.801Z,24.60
2018-05-24T08:42:39.314Z,24.60
2018-05-24T08:45:06.841Z,24.60
2018-05-24T08:47:34.345Z,24.70
2018-05-24T08:50:01.864Z,24.80
2018-05-24T08:52:29.389Z,24.90
2018-05-24T08:54:57.814Z,25.20
2018-05-24T08:57:26.866Z,25.30
2018-05-24T08:59:55.153Z,25.40
2018-05-24T09:02:22.674Z,25.30
2018-05-24T09:04:50.189Z,25.50
2018-05-24T09:07:18.124Z,25.50
2018-05-24T09:09:46.410Z,25.60
2018-05-24T09:12:14.197Z,25.60
2018-05-24T09:14:41.717Z,25.60
2018-05-24T09:17:09.994Z,25.70
2018-05-24T09:19:38.281Z,25.80
2018-05-24T09:22:06.561Z,26.00
2018-05-24T09:24:34.093Z,25.90
2018-05-24T09:27:01.605Z,26.00
2018-05-24T09:29:33.393Z,26.20
2018-05-24T09:32:00.913Z,26.30
2018-05-24T09:34:28.430Z,26.30
2018-05-24T09:36:55.953Z,26.30
2018-05-24T09:39:23.469Z,26.40
2018-05-24T09:41:51.742Z,26.60
2018-05-24T09:44:20.035Z,26.70
2018-05-24T09:46:47.549Z,26.70
2018-05-24T09:49:15.369Z,26.80
2018-05-24T09:51:43.680Z,26.90
2018-05-24T09:54:11.614Z,26.90
2018-05-24T09:56:39.481Z,27.00
2018-05-24T09:59:07.348Z,27.00
2018-05-24T10:01:35.114Z,27.00
2018-05-24T10:04:02.980Z,27.10
2018-05-24T10:06:30.846Z,27.10
2018-05-24T10:08:58.712Z,27.20
2018-05-24T10:11:26.477Z,27.40
2018-05-24T10:13:54.277Z,27.50
2018-05-24T10:16:23.031Z,27.70
2018-05-24T10:18:51.614Z,27.80
2018-05-24T10:21:19.480Z,27.70
2018-05-24T10:23:47.383Z,27.70
2018-05-24T10:26:15.214Z,27.60
2018-05-24T10:28:43.082Z,27.50
2018-05-24T10:31:10.947Z,27.40
2018-05-24T10:33:38.711Z,27.30
2018-05-24T10:36:06.513Z,27.40
2018-05-24T10:38:34.448Z,27.60
2018-05-24T10:41:02.215Z,28.00
2018-05-24T10:43:30.017Z,28.20
2018-05-24T10:45:58.661Z,28.30
2018-05-24T10:48:26.435Z,28.30
2018-05-24T10:50:54.004Z,28.40
2018-05-24T10:53:21.485Z,28.40
2018-05-24T10:55:48.999Z,28.30
2018-05-24T10:58:16.533Z,28.20
2018-05-24T11:00:44.813Z,28.10
2018-05-24T11:03:13.114Z,28.30
2018-05-24T11:05:40.613Z,28.30
2018-05-24T11:08:08.137Z,28.40
2018-05-24T11:10:35.653Z,28.30
2018-05-24T11:13:04.276Z,28.40
2018-05-24T11:15:32.047Z,28.30
2018-05-24T11:17:59.746Z,28.40
2018-05-24T11:20:28.289Z,28.20
2018-05-24T11:22:56.153Z,28.20
2018-05-24T11:25:23.917Z,28.10
2018-05-24T11:27:51.716Z,28.00
2018-05-24T11:30:19.549Z,27.80
2018-05-24T11:32:47.313Z,27.70
2018-05-24T11:35:15.180Z,27.60
2018-05-24T11:37:42.984Z,27.60
2018-05-24T11:40:11.528Z,27.40
2018-05-24T11:42:39.100Z,27.40
2018-05-24T11:45:06.854Z,27.30
2018-05-24T11:47:34.654Z,27.10
2018-05-24T11:50:03.025Z,27.00
2018-05-24T11:52:30.862Z,26.90
2018-05-24T11:54:58.661Z,26.90
2018-05-24T11:57:26.412Z,27.00
2018-05-24T11:59:54.257Z,26.90
2018-05-24T12:02:22.126Z,27.00
2018-05-24T12:04:49.889Z,27.00
2018-05-24T12:07:17.878Z,27.10
2018-05-24T12:09:45.738Z,27.20
2018-05-24T12:12:14.417Z,27.20
2018-05-24T12:14:42.221Z,27.20
2018-05-24T12:17:10.861Z,27.30
2018-05-24T12:19:38.605Z,27.30
2018-05-24T12:22:06.427Z,27.30
2018-05-24T12:24:34.257Z,27.40
2018-05-24T12:27:02.061Z,27.40
2018-05-24T12:29:29.744Z,27.40
2018-05-24T12:31:58.371Z,27.50
2018-05-24T12:34:26.238Z,27.50
2018-05-24T12:36:54.025Z,27.50
2018-05-24T12:39:21.765Z,27.40
2018-05-24T12:41:49.603Z,27.40
2018-05-24T12:44:17.430Z,27.50
2018-05-24T12:46:45.367Z,27.50
2018-05-24T12:49:13.281Z,27.60
2018-05-24T12:51:42.022Z,27.70
2018-05-24T12:54:09.890Z,27.60
2018-05-24T12:56:37.756Z,27.70
2018-05-24T12:59:05.622Z,27.60
2018-05-24T13:01:33.427Z,27.60
2018-05-24T13:04:02.073Z,27.50
2018-05-24T13:06:29.940Z,27.50
2018-05-24T13:08:57.728Z,27.50
2018-05-24T13:11:25.673Z,27.30
2018-05-24T13:13:53.482Z,27.10
2018-05-24T13:16:22.431Z,26.60
2018-05-24T13:18:50.417Z,26.60
2018-05-24T13:21:19.593Z,26.40
2018-05-24T13:23:48.665Z,26.30
2018-05-24T13:26:16.561Z,26.20
2018-05-24T13:28:44.327Z,26.10
2018-05-24T13:31:12.128Z,26.00
2018-05-24T13:33:39.957Z,26.00
2018-05-24T13:36:07.825Z,25.60
2018-05-24T13:38:35.691Z,24.90
2018-05-24T13:41:03.664Z,24.40
2018-05-24T13:43:32.756Z,24.10
2018-05-24T13:46:00.623Z,23.80
2018-05-24T13:48:28.389Z,23.50
2018-05-24T13:50:56.109Z,23.30
2018-05-24T13:53:24.650Z,23.10
2018-05-24T13:55:52.602Z,23.00
2018-05-24T13:58:20.470Z,22.80
2018-05-24T14:00:49.193Z,22.50
2018-05-24T14:03:17.124Z,22.20
2018-05-24T14:05:44.991Z,22.00
2018-05-24T14:08:12.756Z,21.90
2018-05-24T14:10:40.521Z,21.90
2018-05-24T14:13:08.285Z,21.80
2018-05-24T14:15:36.151Z,21.80
2018-05-24T14:18:04.019Z,21.90
2018-05-24T14:20:31.749Z,21.90
2018-05-24T14:22:59.548Z,21.90
2018-05-24T14:25:27.343Z,21.90
2018-05-24T14:27:55.179Z,21.90
2018-05-24T14:30:22.944Z,21.90
2018-05-24T14:32:50.660Z,22.00
2018-05-24T14:35:19.122Z,22.00
2018-05-24T14:37:46.737Z,22.00
2018-05-24T14:40:14.549Z,22.00
2018-05-24T14:42:42.277Z,22.00
2018-05-24T14:45:10.004Z,22.00
2018-05-24T14:47:37.686Z,22.00
2018-05-24T14:50:05.571Z,22.00
2018-05-24T14:52:33.438Z,22.10
2018-05-24T14:55:01.226Z,22.10
2018-05-24T14:57:29.112Z,22.10
2018-05-24T14:59:56.855Z,22.10
2018-05-24T15:02:24.700Z,22.20
2018-05-24T15:04:52.379Z,22.20
2018-05-24T15:07:20.332Z,22.20
2018-05-24T15:09:48.141Z,22.20
2018-05-24T15:12:16.784Z,22.30
2018-05-24T15:14:44.649Z,22.30
2018-05-24T15:17:12.516Z,22.40
2018-05-24T15:19:40.307Z,22.40
2018-05-24T15:22:08.147Z,22.50
2018-05-24T15:24:35.898Z,22.60
2018-05-24T15:27:03.779Z,22.60
2018-05-24T15:29:31.534Z,22.60
2018-05-24T15:31:59.347Z,22.60
2018-05-24T15:34:27.930Z,22.70
2018-05-24T15:36:55.687Z,22.60
2018-05-24T15:39:23.420Z,22.70
2018-05-24T15:41:51.185Z,22.70
2018-05-24T15:44:18.913Z,22.70
2018-05-24T15:46:46.714Z,22.70
2018-05-24T15:49:14.581Z,22.80
2018-05-24T15:51:42.310Z,22.80
2018-05-24T15:54:10.340Z,22.80
2018-05-24T15:56:38.287Z,22.90
2018-05-24T15:59:06.151Z,23.00
2018-05-24T16:01:33.918Z,23.20
2018-05-24T16:04:01.782Z,23.40
2018-05-24T16:06:29.575Z,23.60
2018-05-24T16:08:57.413Z,23.80
2018-05-24T16:11:25.280Z,24.10
2018-05-24T16:13:53.147Z,24.50
2018-05-24T16:16:20.937Z,24.90
2018-05-24T16:18:48.881Z,25.30
2018-05-24T16:21:16.647Z,25.60
2018-05-24T16:23:44.512Z,25.80
2018-05-24T16:26:12.381Z,25.90
2018-05-24T16:28:40.144Z,25.90
2018-05-24T16:31:08.013Z,25.90
2018-05-24T16:33:35.877Z,25.90
2018-05-24T16:36:03.644Z,25.90
2018-05-24T16:38:31.511Z,25.90
2018-05-24T16:40:59.138Z,25.80
2018-05-24T16:43:27.439Z,25.60
2018-05-24T16:45:54.981Z,25.50
2018-05-24T16:48:23.257Z,25.30
2018-05-24T16:50:51.537Z,25.20
2018-05-24T16:53:19.835Z,25.10
2018-05-24T16:55:47.342Z,25.00
2018-05-24T16:58:14.854Z,24.90
2018-05-24T17:00:42.373Z,24.80
2018-05-24T17:03:10.662Z,24.50
2018-05-24T17:05:38.941Z,24.30
2018-05-24T17:08:07.222Z,24.20
2018-05-24T17:10:35.493Z,24.10
2018-05-24T17:13:03.778Z,23.90
2018-05-24T17:15:32.074Z,23.80
2018-05-24T17:17:59.593Z,23.80
2018-05-24T17:20:27.165Z,23.70
2018-05-24T17:22:55.462Z,23.50
2018-05-24T17:25:25.418Z,23.50
2018-05-24T17:27:52.921Z,23.40
2018-05-24T17:30:21.201Z,23.30
2018-05-24T17:32:48.721Z,23.30
2018-05-24T17:35:16.237Z,23.20
2018-05-24T17:37:43.749Z,23.20
2018-05-24T17:40:11.266Z,23.10
2018-05-24T17:42:38.797Z,23.10
2018-05-24T17:45:06.345Z,23.10
2018-05-24T17:47:34.618Z,23.00
2018-05-24T17:50:02.914Z,23.00
2018-05-24T17:52:30.433Z,22.90
2018-05-24T17:54:58.017Z,22.90
2018-05-24T17:57:26.326Z,22.80
2018-05-24T17:59:53.842Z,22.80
2018-05-24T18:02:22.129Z,22.70
2018-05-24T18:04:50.402Z,22.70
2018-05-24T18:07:18.686Z,22.60
2018-05-24T18:09:46.972Z,22.50
2018-05-24T18:12:14.489Z,22.50
2018-05-24T18:14:43.497Z,22.40
2018-05-24T18:17:11.018Z,22.30
2018-05-24T18:19:38.533Z,22.30
2018-05-24T18:22:06.819Z,22.20
2018-05-24T18:24:34.346Z,22.20
2018-05-24T18:27:01.863Z,22.10
2018-05-24T18:29:29.385Z,22.10
2018-05-24T18:31:57.661Z,22.00
2018-05-24T18:34:25.943Z,21.90
2018-05-24T18:36:54.221Z,21.90
2018-05-24T18:39:21.774Z,21.80
2018-05-24T18:41:50.146Z,21.80
2018-05-24T18:44:18.425Z,21.70
2018-05-24T18:46:46.702Z,21.70
2018-05-24T18:49:14.973Z,21.60
2018-05-24T18:51:43.245Z,21.60
2018-05-24T18:54:11.540Z,21.60
2018-05-24T18:56:39.812Z,21.50
2018-05-24T18:59:08.089Z,21.40
2018-05-24T19:01:36.377Z,21.40
2018-05-24T19:04:03.893Z,21.40
2018-05-24T19:06:32.934Z,21.30
2018-05-24T19:09:00.457Z,21.40
2018-05-24T19:11:27.981Z,21.40
2018-05-24T19:13:55.509Z,21.40
2018-05-24T19:16:23.046Z,21.30
2018-05-24T19:18:51.329Z,21.20
2018-05-24T19:21:19.642Z,21.20
2018-05-24T19:23:47.151Z,21.20
2018-05-24T19:26:14.678Z,21.20
2018-05-24T19:28:42.195Z,21.20
2018-05-24T19:31:09.705Z,21.20
2018-05-24T19:33:37.237Z,21.10
2018-05-24T19:36:04.767Z,21.10
2018-05-24T19:38:32.305Z,21.10
2018-05-24T19:41:00.589Z,21.10
2018-05-24T19:43:28.868Z,21.10
2018-05-24T19:45:57.172Z,21.10
2018-05-24T19:48:24.693Z,21.00
2018-05-24T19:50:52.221Z,21.10
2018-05-24T19:53:19.752Z,21.10
2018-05-24T19:55:47.291Z,21.10
2018-05-24T19:58:15.563Z,21.10
2018-05-24T20:00:43.862Z,21.00
2018-05-24T20:03:11.388Z,21.00
2018-05-24T20:05:39.681Z,21.00
2018-05-24T20:08:07.973Z,21.00
2018-05-24T20:10:35.493Z,21.00
2018-05-24T20:13:03.036Z,21.00
2018-05-24T20:15:30.541Z,21.00
2018-05-24T20:17:58.065Z,20.90
2018-05-24T20:20:25.577Z,20.90
2018-05-24T20:22:53.147Z,20.90
2018-05-24T20:25:20.658Z,20.90
2018-05-24T20:27:49.000Z,20.80
2018-05-24T20:30:16.531Z,20.80
2018-05-24T20:32:44.100Z,20.80
2018-05-24T20:35:12.439Z,20.80
2018-05-24T20:37:39.976Z,20.80
2018-05-24T20:40:07.490Z,20.80
2018-05-24T20:42:35.009Z,20.80
2018-05-24T20:45:03.294Z,20.80
2018-05-24T20:47:31.589Z,20.80
2018-05-24T20:49:59.125Z,20.80
2018-05-24T20:52:27.401Z,20.70
2018-05-24T20:54:55.689Z,20.70
2018-05-24T20:57:23.966Z,20.70
2018-05-24T20:59:51.477Z,20.70
2018-05-24T21:02:19.001Z,20.70
2018-05-24T21:04:46.517Z,20.70
2018-05-24T21:07:14.805Z,20.70
2018-05-24T21:09:43.101Z,20.70
2018-05-24T21:12:10.642Z,20.60
2018-05-24T21:14:38.926Z,20.60
2018-05-24T21:17:07.205Z,20.60
2018-05-24T21:19:34.721Z,20.60
2018-05-24T21:22:02.242Z,20.60
2018-05-24T21:24:29.753Z,20.60
2018-05-24T21:26:57.281Z,20.60
2018-05-24T21:29:24.797Z,20.60
2018-05-24T21:31:53.077Z,20.60
2018-05-24T21:34:20.601Z,20.60
2018-05-24T21:36:48.885Z,20.60
2018-05-24T21:39:16.402Z,20.60
2018-05-24T21:41:43.919Z,20.60
2018-05-24T21:44:12.201Z,20.50
2018-05-24T21:46:40.473Z,20.50
2018-05-24T21:49:08.758Z,20.40
2018-05-24T21:51:37.109Z,20.40
2018-05-24T21:54:04.631Z,20.40
2018-05-24T21:56:32.153Z,20.40
2018-05-24T21:59:00.433Z,20.40
2018-05-24T22:01:27.986Z,20.40
2018-05-24T22:03:56.269Z,20.40
2018-05-24T22:06:23.787Z,20.40
2018-05-24T22:08:53.177Z,20.40
2018-05-24T22:11:22.959Z,20.40
2018-05-24T22:13:50.928Z,20.40
2018-05-24T22:16:18.798Z,20.40
2018-05-24T22:18:46.768Z,20.40
2018-05-24T22:21:14.631Z,20.40
2018-05-24T22:23:42.499Z,20.40
2018-05-24T22:26:10.405Z,20.30
2018-05-24T22:28:38.334Z,20.30
2018-05-24T22:31:05.993Z,20.30
2018-05-24T22:33:33.710Z,20.30
2018-05-24T22:36:02.279Z,20.20
2018-05-24T22:38:30.109Z,20.20
2018-05-24T22:40:57.912Z,20.20
2018-05-24T22:43:26.559Z,20.20
2018-05-24T22:45:54.425Z,20.10
2018-05-24T22:48:22.180Z,20.10
2018-05-24T22:50:49.988Z,20.10
2018-05-24T22:53:18.641Z,20.10
2018-05-24T22:55:46.508Z,20.10
2018-05-24T22:58:14.312Z,20.10
2018-05-24T23:00:42.242Z,20.10
2018-05-24T23:03:10.047Z,20.10
2018-05-24T23:05:38.692Z,20.10
2018-05-24T23:08:06.662Z,20.00
2018-05-24T23:10:34.529Z,20.10
2018-05-24T23:13:02.396Z,20.00
2018-05-24T23:15:30.162Z,20.00
2018-05-24T23:17:58.027Z,20.00
2018-05-24T23:20:25.996Z,20.00
2018-05-24T23:22:53.862Z,19.90
2018-05-24T23:25:21.730Z,19.90
2018-05-24T23:27:49.524Z,19.90
2018-05-24T23:30:17.362Z,19.90
2018-05-24T23:32:45.126Z,19.90
2018-05-24T23:35:12.992Z,19.90
2018-05-24T23:37:40.814Z,19.90
2018-05-24T23:40:09.443Z,19.90
2018-05-24T23:42:37.209Z,19.80
2018-05-24T23:45:05.076Z,19.90
2018-05-24T23:47:32.972Z,19.80
2018-05-24T23:50:01.629Z,19.80
2018-05-24T23:52:29.422Z,19.80
2018-05-24T23:54:57.259Z,19.80
2018-05-24T23:57:25.126Z,19.80
2018-05-24T23:59:52.992Z,19.80
